EXS87KE LERS-EGGP
Flight info
| Callsign | EXS87KE |
|---|---|
| Flight time | 2h 1m |
| Altitude | 40000 |
| Route | NATPI DCT EVNAM DCT AGN DCT SECHE DCT UVELI DCT CNA DCT MANAK DCT MUREL DCT NOZHU DCT SHIRI DCT TOJAQ DCT EPACE DCT ACCOP DCT MOCQO P16 PEPZE |
| Aircraft | B738/M-SDE2E3FGHIRWXY/LB1 |
Departure
| Time | 2026-05-06 15:50 |
|---|---|
| Airport | Reus Airport (LERS) |
Arrival
| Time | 2026-05-06 17:52 |
|---|---|
| Airport | Liverpool John Lennon Airport (EGGP) |
| Time | Latitude | Longitude | Altitude | Speed | Heading |
|---|---|---|---|---|---|
| 2026-05-06 15:10 | 41.14663 | 1.15561 | 244 ft | 0 kts | 339° |
| 2026-05-06 15:45 | 41.14651 | 1.15567 | 242 ft | 4 kts | 339° |
| 2026-05-06 15:45 | 41.14627 | 1.15580 | 242 ft | 3 kts | 339° |
| 2026-05-06 15:46 | 41.14607 | 1.15593 | 242 ft | 4 kts | 309° |
| 2026-05-06 15:46 | 41.14599 | 1.15622 | 242 ft | 4 kts | 262° |
| 2026-05-06 15:46 | 41.14604 | 1.15647 | 242 ft | 0 kts | 249° |
| 2026-05-06 15:48 | 41.14603 | 1.15646 | 242 ft | 1 kts | 249° |
| 2026-05-06 15:49 | 41.14594 | 1.15615 | 241 ft | 7 kts | 248° |
| 2026-05-06 15:49 | 41.14546 | 1.15564 | 241 ft | 11 kts | 171° |
| 2026-05-06 15:49 | 41.14477 | 1.15600 | 241 ft | 11 kts | 160° |
| 2026-05-06 15:49 | 41.14435 | 1.15666 | 241 ft | 10 kts | 96° |
| 2026-05-06 15:50 | 41.14463 | 1.15772 | 241 ft | 26 kts | 69° |
| 2026-05-06 15:50 | 41.14634 | 1.16358 | 241 ft | 109 kts | 68° |
| 2026-05-06 15:50 | 41.14992 | 1.17557 | 355 ft | 161 kts | 71° |
| 2026-05-06 15:50 | 41.15404 | 1.18950 | 1094 ft | 164 kts | 71° |
| 2026-05-06 15:51 | 41.15810 | 1.20337 | 2083 ft | 159 kts | 68° |
| 2026-05-06 15:51 | 41.16218 | 1.21721 | 2912 ft | 166 kts | 67° |
| 2026-05-06 15:51 | 41.16681 | 1.23268 | 3405 ft | 197 kts | 66° |
| 2026-05-06 15:51 | 41.17211 | 1.25016 | 4148 ft | 208 kts | 66° |
| 2026-05-06 15:52 | 41.17770 | 1.26855 | 4722 ft | 227 kts | 65° |
| 2026-05-06 15:52 | 41.18420 | 1.28945 | 4970 ft | 262 kts | 61° |
| 2026-05-06 15:52 | 41.19678 | 1.30718 | 5588 ft | 270 kts | 24° |
| 2026-05-06 15:52 | 41.21485 | 1.31188 | 6600 ft | 265 kts | 355° |
| 2026-05-06 15:53 | 41.23336 | 1.31069 | 7571 ft | 269 kts | 354° |
| 2026-05-06 15:53 | 41.25230 | 1.30925 | 8551 ft | 275 kts | 353° |
| 2026-05-06 15:53 | 41.27149 | 1.30783 | 9595 ft | 279 kts | 353° |
| 2026-05-06 15:53 | 41.29114 | 1.30646 | 10468 ft | 290 kts | 353° |
| 2026-05-06 15:54 | 41.31201 | 1.30510 | 11065 ft | 308 kts | 354° |
| 2026-05-06 15:54 | 41.33373 | 1.30380 | 11942 ft | 316 kts | 354° |
| 2026-05-06 15:54 | 41.35593 | 1.30259 | 12944 ft | 322 kts | 354° |
| 2026-05-06 15:54 | 41.37847 | 1.30142 | 13965 ft | 327 kts | 355° |
| 2026-05-06 15:55 | 41.40102 | 1.30028 | 14939 ft | 331 kts | 355° |
| 2026-05-06 15:55 | 41.42450 | 1.29912 | 15933 ft | 336 kts | 355° |
| 2026-05-06 15:55 | 41.44808 | 1.29796 | 16916 ft | 342 kts | 354° |
| 2026-05-06 15:55 | 41.47204 | 1.29680 | 17900 ft | 347 kts | 354° |
| 2026-05-06 15:56 | 41.49610 | 1.29563 | 18754 ft | 353 kts | 354° |
| 2026-05-06 15:56 | 41.52089 | 1.29443 | 19552 ft | 360 kts | 353° |
| 2026-05-06 15:56 | 41.54613 | 1.29321 | 20340 ft | 366 kts | 353° |
| 2026-05-06 15:56 | 41.57182 | 1.29196 | 21157 ft | 372 kts | 352° |
| 2026-05-06 15:57 | 41.59791 | 1.29069 | 21958 ft | 378 kts | 352° |
| 2026-05-06 15:57 | 41.62441 | 1.28940 | 22728 ft | 384 kts | 351° |
| 2026-05-06 15:57 | 41.65128 | 1.28793 | 23476 ft | 390 kts | 350° |
| 2026-05-06 15:57 | 41.67861 | 1.28636 | 24114 ft | 396 kts | 350° |
| 2026-05-06 15:58 | 41.70625 | 1.28483 | 24801 ft | 399 kts | 350° |
| 2026-05-06 15:58 | 41.73414 | 1.28337 | 25487 ft | 403 kts | 350° |
| 2026-05-06 15:58 | 41.76233 | 1.28194 | 26128 ft | 408 kts | 350° |
| 2026-05-06 15:58 | 41.79080 | 1.28055 | 26835 ft | 410 kts | 351° |
| 2026-05-06 15:59 | 41.81949 | 1.27918 | 27510 ft | 414 kts | 351° |
| 2026-05-06 15:59 | 41.84842 | 1.27780 | 28086 ft | 419 kts | 351° |
| 2026-05-06 15:59 | 41.87773 | 1.27640 | 28641 ft | 424 kts | 351° |
| 2026-05-06 15:59 | 41.90737 | 1.27499 | 29208 ft | 428 kts | 351° |
| 2026-05-06 16:00 | 41.93730 | 1.27356 | 29758 ft | 433 kts | 351° |
| 2026-05-06 16:00 | 41.96751 | 1.27212 | 30249 ft | 437 kts | 351° |
| 2026-05-06 16:00 | 41.99801 | 1.27068 | 30714 ft | 440 kts | 351° |
| 2026-05-06 16:00 | 42.02870 | 1.26922 | 31116 ft | 444 kts | 351° |
| 2026-05-06 16:01 | 42.05967 | 1.26776 | 31530 ft | 447 kts | 351° |
| 2026-05-06 16:01 | 42.09085 | 1.26627 | 31937 ft | 449 kts | 351° |
| 2026-05-06 16:01 | 42.12217 | 1.26477 | 32438 ft | 450 kts | 351° |
| 2026-05-06 16:01 | 42.15333 | 1.26330 | 33026 ft | 448 kts | 351° |
| 2026-05-06 16:02 | 42.18445 | 1.26185 | 33609 ft | 446 kts | 351° |
| 2026-05-06 16:02 | 42.21543 | 1.26038 | 34106 ft | 446 kts | 351° |
| 2026-05-06 16:02 | 42.24648 | 1.25888 | 34479 ft | 448 kts | 351° |
| 2026-05-06 16:02 | 42.27761 | 1.25737 | 34953 ft | 447 kts | 352° |
| 2026-05-06 16:03 | 42.30863 | 1.25588 | 35445 ft | 445 kts | 352° |
| 2026-05-06 16:03 | 42.33955 | 1.25441 | 35898 ft | 445 kts | 352° |
| 2026-05-06 16:03 | 42.37047 | 1.25291 | 36321 ft | 445 kts | 352° |
| 2026-05-06 16:03 | 42.40142 | 1.25141 | 36766 ft | 445 kts | 352° |
| 2026-05-06 16:04 | 42.43234 | 1.24991 | 37175 ft | 445 kts | 352° |
| 2026-05-06 16:04 | 42.46282 | 1.24842 | 37609 ft | 444 kts | 352° |
| 2026-05-06 16:04 | 42.49375 | 1.24693 | 38032 ft | 444 kts | 352° |
| 2026-05-06 16:04 | 42.52459 | 1.24545 | 38487 ft | 443 kts | 352° |
| 2026-05-06 16:05 | 42.55537 | 1.24396 | 38825 ft | 443 kts | 352° |
| 2026-05-06 16:05 | 42.58624 | 1.24246 | 39122 ft | 444 kts | 352° |
| 2026-05-06 16:05 | 42.61714 | 1.24095 | 39432 ft | 444 kts | 353° |
| 2026-05-06 16:05 | 42.64801 | 1.23946 | 39728 ft | 444 kts | 353° |
| 2026-05-06 16:06 | 42.67883 | 1.23800 | 39928 ft | 443 kts | 353° |
| 2026-05-06 16:06 | 42.70982 | 1.23647 | 39958 ft | 450 kts | 353° |
| 2026-05-06 16:06 | 42.77234 | 1.23050 | 39935 ft | 447 kts | 349° |
| 2026-05-06 16:07 | 42.83354 | 1.22154 | 39976 ft | 439 kts | 349° |
| 2026-05-06 16:07 | 42.89445 | 1.21253 | 39972 ft | 441 kts | 349° |
| 2026-05-06 16:08 | 42.95553 | 1.20389 | 39973 ft | 442 kts | 349° |
| 2026-05-06 16:08 | 43.01677 | 1.19543 | 39985 ft | 443 kts | 349° |
| 2026-05-06 16:09 | 43.07811 | 1.18697 | 39976 ft | 444 kts | 349° |
| 2026-05-06 16:09 | 43.13955 | 1.17847 | 39964 ft | 444 kts | 349° |
| 2026-05-06 16:10 | 43.20103 | 1.16995 | 39963 ft | 444 kts | 349° |
| 2026-05-06 16:10 | 43.26245 | 1.16142 | 39966 ft | 444 kts | 350° |
| 2026-05-06 16:11 | 43.32384 | 1.15287 | 39956 ft | 443 kts | 350° |
| 2026-05-06 16:11 | 43.38513 | 1.14432 | 39965 ft | 442 kts | 350° |
| 2026-05-06 16:12 | 43.44626 | 1.13578 | 39964 ft | 441 kts | 350° |
| 2026-05-06 16:12 | 43.50728 | 1.12725 | 39949 ft | 441 kts | 350° |
| 2026-05-06 16:13 | 43.56824 | 1.11869 | 39949 ft | 439 kts | 350° |
| 2026-05-06 16:13 | 43.62653 | 1.09977 | 39950 ft | 429 kts | 332° |
| 2026-05-06 16:14 | 43.67989 | 1.06377 | 39939 ft | 427 kts | 329° |
| 2026-05-06 16:14 | 43.73285 | 1.02674 | 39946 ft | 426 kts | 329° |
| 2026-05-06 16:15 | 43.78592 | 0.99003 | 39940 ft | 427 kts | 329° |
| 2026-05-06 16:15 | 43.83911 | 0.95354 | 39947 ft | 427 kts | 330° |
| 2026-05-06 16:16 | 43.89241 | 0.91704 | 39941 ft | 428 kts | 330° |
| 2026-05-06 16:16 | 43.94578 | 0.88043 | 39939 ft | 428 kts | 330° |
| 2026-05-06 16:17 | 43.99014 | 0.84995 | 39940 ft | 428 kts | 330° |
| 2026-05-06 16:17 | 44.04391 | 0.81291 | 39949 ft | 429 kts | 330° |
| 2026-05-06 16:18 | 44.09702 | 0.77626 | 39942 ft | 429 kts | 330° |
| 2026-05-06 16:18 | 44.15090 | 0.73900 | 39945 ft | 429 kts | 330° |
| 2026-05-06 16:19 | 44.20438 | 0.70195 | 39938 ft | 429 kts | 330° |
| 2026-05-06 16:19 | 44.25747 | 0.66509 | 39936 ft | 429 kts | 330° |
| 2026-05-06 16:20 | 44.31089 | 0.62792 | 39931 ft | 429 kts | 330° |
| 2026-05-06 16:20 | 44.36429 | 0.59069 | 39937 ft | 429 kts | 330° |
| 2026-05-06 16:21 | 44.41764 | 0.55342 | 39939 ft | 428 kts | 330° |
| 2026-05-06 16:21 | 44.47101 | 0.51605 | 39947 ft | 429 kts | 330° |
| 2026-05-06 16:22 | 44.52439 | 0.47861 | 39937 ft | 429 kts | 330° |
| 2026-05-06 16:22 | 44.57777 | 0.44109 | 39952 ft | 430 kts | 330° |
| 2026-05-06 16:23 | 44.63124 | 0.40343 | 39943 ft | 430 kts | 330° |
| 2026-05-06 16:23 | 44.68459 | 0.36577 | 39946 ft | 429 kts | 330° |
| 2026-05-06 16:24 | 44.73785 | 0.32811 | 39937 ft | 428 kts | 330° |
| 2026-05-06 16:24 | 44.79102 | 0.29042 | 39943 ft | 428 kts | 330° |
| 2026-05-06 16:25 | 44.84375 | 0.25298 | 39939 ft | 427 kts | 330° |
| 2026-05-06 16:25 | 44.89673 | 0.21527 | 39935 ft | 426 kts | 330° |
| 2026-05-06 16:26 | 44.94958 | 0.17759 | 39941 ft | 425 kts | 330° |
| 2026-05-06 16:26 | 45.00236 | 0.13989 | 39947 ft | 425 kts | 330° |
| 2026-05-06 16:27 | 45.05475 | 0.10122 | 39942 ft | 424 kts | 327° |
| 2026-05-06 16:27 | 45.10496 | 0.05751 | 39941 ft | 423 kts | 325° |
| 2026-05-06 16:28 | 45.15473 | 0.01282 | 39937 ft | 424 kts | 325° |
| 2026-05-06 16:28 | 45.20472 | -0.03176 | 39951 ft | 425 kts | 325° |
| 2026-05-06 16:29 | 45.25484 | -0.07621 | 39942 ft | 425 kts | 326° |
| 2026-05-06 16:29 | 45.30507 | -0.12071 | 39941 ft | 426 kts | 326° |
| 2026-05-06 16:30 | 45.34682 | -0.15776 | 39940 ft | 426 kts | 326° |
| 2026-05-06 16:30 | 45.40555 | -0.20999 | 39940 ft | 426 kts | 326° |
| 2026-05-06 16:31 | 45.45579 | -0.25478 | 39936 ft | 426 kts | 326° |
| 2026-05-06 16:31 | 45.50605 | -0.29969 | 39939 ft | 426 kts | 326° |
| 2026-05-06 16:32 | 45.55628 | -0.34467 | 39938 ft | 426 kts | 325° |
| 2026-05-06 16:32 | 45.60650 | -0.38973 | 39944 ft | 426 kts | 326° |
| 2026-05-06 16:33 | 45.65668 | -0.43485 | 39940 ft | 426 kts | 326° |
| 2026-05-06 16:34 | 45.73157 | -0.50237 | 39944 ft | 426 kts | 326° |
| 2026-05-06 16:34 | 45.78167 | -0.54766 | 39944 ft | 426 kts | 325° |
| 2026-05-06 16:35 | 45.83173 | -0.59302 | 39935 ft | 426 kts | 325° |
| 2026-05-06 16:35 | 45.88177 | -0.63845 | 39952 ft | 425 kts | 325° |
| 2026-05-06 16:36 | 45.93176 | -0.68394 | 39951 ft | 425 kts | 325° |
| 2026-05-06 16:36 | 45.98170 | -0.72947 | 39962 ft | 425 kts | 325° |
| 2026-05-06 16:37 | 46.03162 | -0.77509 | 39956 ft | 425 kts | 325° |
| 2026-05-06 16:37 | 46.08149 | -0.82076 | 39958 ft | 425 kts | 325° |
| 2026-05-06 16:38 | 46.13132 | -0.86649 | 39957 ft | 424 kts | 325° |
| 2026-05-06 16:38 | 46.18106 | -0.91222 | 39960 ft | 424 kts | 325° |
| 2026-05-06 16:39 | 46.23135 | -0.95676 | 39968 ft | 425 kts | 329° |
| 2026-05-06 16:39 | 46.28370 | -0.99642 | 39964 ft | 425 kts | 331° |
| 2026-05-06 16:40 | 46.33638 | -1.03531 | 39967 ft | 425 kts | 331° |
| 2026-05-06 16:40 | 46.38890 | -1.07452 | 39963 ft | 425 kts | 330° |
| 2026-05-06 16:41 | 46.44102 | -1.11385 | 39963 ft | 425 kts | 330° |
| 2026-05-06 16:41 | 46.49343 | -1.15362 | 39958 ft | 425 kts | 330° |
| 2026-05-06 16:42 | 46.54585 | -1.19351 | 39961 ft | 425 kts | 330° |
| 2026-05-06 16:42 | 46.59827 | -1.23348 | 39974 ft | 426 kts | 330° |
| 2026-05-06 16:43 | 46.65078 | -1.27360 | 39967 ft | 426 kts | 330° |
| 2026-05-06 16:43 | 46.70323 | -1.31376 | 39971 ft | 426 kts | 330° |
| 2026-05-06 16:44 | 46.75568 | -1.35402 | 39967 ft | 426 kts | 330° |
| 2026-05-06 16:44 | 46.80807 | -1.39431 | 39972 ft | 426 kts | 330° |
| 2026-05-06 16:45 | 46.86052 | -1.43475 | 39961 ft | 426 kts | 330° |
| 2026-05-06 16:45 | 46.91294 | -1.47524 | 39956 ft | 426 kts | 330° |
| 2026-05-06 16:46 | 46.96527 | -1.51576 | 39963 ft | 425 kts | 330° |
| 2026-05-06 16:46 | 47.01751 | -1.55630 | 39957 ft | 425 kts | 330° |
| 2026-05-06 16:47 | 47.06968 | -1.59687 | 39954 ft | 424 kts | 330° |
| 2026-05-06 16:47 | 47.12174 | -1.63745 | 39936 ft | 423 kts | 330° |
| 2026-05-06 16:48 | 47.17340 | -1.67781 | 39958 ft | 423 kts | 330° |
| 2026-05-06 16:48 | 47.22541 | -1.71853 | 39946 ft | 423 kts | 330° |
| 2026-05-06 16:49 | 47.27740 | -1.75933 | 39943 ft | 423 kts | 330° |
| 2026-05-06 16:49 | 47.32932 | -1.80016 | 39943 ft | 423 kts | 330° |
| 2026-05-06 16:50 | 47.38122 | -1.84107 | 39957 ft | 423 kts | 330° |
| 2026-05-06 16:50 | 47.43308 | -1.88204 | 39961 ft | 423 kts | 330° |
| 2026-05-06 16:51 | 47.48488 | -1.92306 | 39959 ft | 423 kts | 330° |
| 2026-05-06 16:51 | 47.53668 | -1.96417 | 39963 ft | 422 kts | 330° |
| 2026-05-06 16:52 | 47.58847 | -2.00536 | 39965 ft | 423 kts | 330° |
| 2026-05-06 16:52 | 47.64033 | -2.04670 | 39967 ft | 424 kts | 330° |
| 2026-05-06 16:53 | 47.69241 | -2.08832 | 39969 ft | 426 kts | 330° |
| 2026-05-06 16:53 | 47.74467 | -2.13017 | 39951 ft | 427 kts | 330° |
| 2026-05-06 16:54 | 47.79680 | -2.17201 | 39961 ft | 425 kts | 330° |
| 2026-05-06 16:54 | 47.84870 | -2.21376 | 39960 ft | 423 kts | 330° |
| 2026-05-06 16:55 | 47.90035 | -2.25541 | 39955 ft | 422 kts | 330° |
| 2026-05-06 16:55 | 47.95154 | -2.29678 | 39956 ft | 420 kts | 330° |
| 2026-05-06 16:56 | 48.00283 | -2.33833 | 39967 ft | 420 kts | 329° |
| 2026-05-06 16:56 | 48.05416 | -2.38000 | 39965 ft | 420 kts | 329° |
| 2026-05-06 16:57 | 48.10544 | -2.42174 | 39961 ft | 420 kts | 329° |
| 2026-05-06 16:57 | 48.15667 | -2.46352 | 39958 ft | 420 kts | 329° |
| 2026-05-06 16:58 | 48.20797 | -2.50546 | 39968 ft | 420 kts | 329° |
| 2026-05-06 16:58 | 48.25934 | -2.54755 | 39961 ft | 421 kts | 329° |
| 2026-05-06 16:59 | 48.31076 | -2.58978 | 39965 ft | 421 kts | 329° |
| 2026-05-06 16:59 | 48.36223 | -2.63215 | 39963 ft | 422 kts | 329° |
| 2026-05-06 17:00 | 48.41372 | -2.67463 | 39966 ft | 422 kts | 329° |
| 2026-05-06 17:00 | 48.46520 | -2.71720 | 39965 ft | 422 kts | 329° |
| 2026-05-06 17:01 | 48.51663 | -2.75984 | 39965 ft | 422 kts | 329° |
| 2026-05-06 17:01 | 48.56803 | -2.80255 | 39969 ft | 422 kts | 329° |
| 2026-05-06 17:02 | 48.61937 | -2.84530 | 39996 ft | 421 kts | 329° |
| 2026-05-06 17:02 | 48.67070 | -2.88815 | 39989 ft | 421 kts | 329° |
| 2026-05-06 17:03 | 48.72192 | -2.93101 | 39989 ft | 421 kts | 329° |
| 2026-05-06 17:03 | 48.77313 | -2.97396 | 39980 ft | 420 kts | 329° |
| 2026-05-06 17:04 | 48.82424 | -3.01692 | 39978 ft | 420 kts | 329° |
| 2026-05-06 17:04 | 48.87530 | -3.05995 | 39983 ft | 420 kts | 329° |
| 2026-05-06 17:05 | 48.91772 | -3.09578 | 39985 ft | 420 kts | 329° |
| 2026-05-06 17:05 | 48.96878 | -3.13898 | 39979 ft | 420 kts | 329° |
| 2026-05-06 17:06 | 49.01980 | -3.18227 | 39983 ft | 420 kts | 329° |
| 2026-05-06 17:06 | 49.07075 | -3.22559 | 39982 ft | 420 kts | 329° |
| 2026-05-06 17:07 | 49.12177 | -3.26908 | 39981 ft | 420 kts | 329° |
| 2026-05-06 17:07 | 49.17273 | -3.31262 | 39982 ft | 420 kts | 329° |
| 2026-05-06 17:08 | 49.22372 | -3.35628 | 39981 ft | 420 kts | 329° |
| 2026-05-06 17:08 | 49.27467 | -3.40002 | 39980 ft | 420 kts | 329° |
| 2026-05-06 17:09 | 49.32567 | -3.44390 | 39986 ft | 420 kts | 329° |
| 2026-05-06 17:09 | 49.37625 | -3.48753 | 39979 ft | 420 kts | 329° |
| 2026-05-06 17:10 | 49.42718 | -3.53156 | 39978 ft | 420 kts | 329° |
| 2026-05-06 17:10 | 49.47808 | -3.57567 | 39993 ft | 420 kts | 329° |
| 2026-05-06 17:11 | 49.52887 | -3.61979 | 39981 ft | 420 kts | 329° |
| 2026-05-06 17:11 | 49.57975 | -3.66408 | 39983 ft | 419 kts | 329° |
| 2026-05-06 17:12 | 49.63051 | -3.70837 | 39982 ft | 419 kts | 329° |
| 2026-05-06 17:12 | 49.68239 | -3.74894 | 39981 ft | 421 kts | 341° |
| 2026-05-06 17:13 | 49.74032 | -3.76111 | 39987 ft | 424 kts | 1° |
| 2026-05-06 17:13 | 49.79924 | -3.75410 | 39991 ft | 425 kts | 3° |
| 2026-05-06 17:14 | 49.85815 | -3.74603 | 39986 ft | 425 kts | 3° |
| 2026-05-06 17:14 | 49.91707 | -3.73856 | 39991 ft | 425 kts | 2° |
| 2026-05-06 17:15 | 49.97603 | -3.73147 | 39991 ft | 425 kts | 2° |
| 2026-05-06 17:15 | 50.03494 | -3.72447 | 39993 ft | 425 kts | 2° |
| 2026-05-06 17:16 | 50.09355 | -3.71749 | 39997 ft | 425 kts | 2° |
| 2026-05-06 17:16 | 50.15256 | -3.71042 | 40006 ft | 425 kts | 2° |
| 2026-05-06 17:17 | 50.21159 | -3.70333 | 39998 ft | 426 kts | 2° |
| 2026-05-06 17:17 | 50.27065 | -3.69622 | 39998 ft | 426 kts | 2° |
| 2026-05-06 17:18 | 50.32971 | -3.68907 | 39993 ft | 426 kts | 2° |
| 2026-05-06 17:18 | 50.38880 | -3.68192 | 39996 ft | 426 kts | 2° |
| 2026-05-06 17:19 | 50.44777 | -3.67330 | 39996 ft | 426 kts | 5° |
| 2026-05-06 17:19 | 50.50661 | -3.66123 | 39992 ft | 426 kts | 5° |
| 2026-05-06 17:20 | 50.56548 | -3.64987 | 39995 ft | 426 kts | 5° |
| 2026-05-06 17:20 | 50.62434 | -3.63881 | 40001 ft | 426 kts | 5° |
| 2026-05-06 17:21 | 50.68320 | -3.62766 | 39995 ft | 426 kts | 5° |
| 2026-05-06 17:21 | 50.74207 | -3.61640 | 39990 ft | 426 kts | 5° |
| 2026-05-06 17:22 | 50.80052 | -3.60516 | 39995 ft | 426 kts | 5° |
| 2026-05-06 17:22 | 50.85931 | -3.59383 | 39995 ft | 425 kts | 5° |
| 2026-05-06 17:23 | 50.91807 | -3.58248 | 39993 ft | 425 kts | 5° |
| 2026-05-06 17:23 | 50.97672 | -3.57112 | 39990 ft | 425 kts | 5° |
| 2026-05-06 17:24 | 51.03537 | -3.55973 | 39994 ft | 424 kts | 5° |
| 2026-05-06 17:24 | 51.09398 | -3.54831 | 39990 ft | 424 kts | 5° |
| 2026-05-06 17:25 | 51.15257 | -3.53686 | 39990 ft | 424 kts | 5° |
| 2026-05-06 17:25 | 51.21113 | -3.52539 | 39991 ft | 424 kts | 5° |
| 2026-05-06 17:26 | 51.26966 | -3.51394 | 39990 ft | 424 kts | 5° |
| 2026-05-06 17:26 | 51.32819 | -3.50248 | 39997 ft | 424 kts | 5° |
| 2026-05-06 17:27 | 51.38671 | -3.49097 | 39995 ft | 424 kts | 5° |
| 2026-05-06 17:27 | 51.44516 | -3.47942 | 39993 ft | 424 kts | 5° |
| 2026-05-06 17:28 | 51.50369 | -3.46782 | 39996 ft | 424 kts | 5° |
| 2026-05-06 17:28 | 51.56184 | -3.45627 | 40003 ft | 424 kts | 5° |
| 2026-05-06 17:29 | 51.62051 | -3.44458 | 39726 ft | 428 kts | 5° |
| 2026-05-06 17:29 | 51.64998 | -3.43870 | 39341 ft | 425 kts | 5° |
| 2026-05-06 17:29 | 51.67935 | -3.43282 | 38832 ft | 425 kts | 5° |
| 2026-05-06 17:29 | 51.70872 | -3.42695 | 38230 ft | 426 kts | 5° |
| 2026-05-06 17:30 | 51.73809 | -3.42106 | 37656 ft | 425 kts | 5° |
| 2026-05-06 17:30 | 51.76736 | -3.41518 | 37116 ft | 423 kts | 5° |
| 2026-05-06 17:30 | 51.79653 | -3.40931 | 36555 ft | 422 kts | 5° |
| 2026-05-06 17:30 | 51.82561 | -3.40345 | 36002 ft | 421 kts | 5° |
| 2026-05-06 17:31 | 51.85464 | -3.39759 | 35418 ft | 421 kts | 4° |
| 2026-05-06 17:31 | 51.88372 | -3.39173 | 34798 ft | 421 kts | 4° |
| 2026-05-06 17:31 | 51.91279 | -3.38587 | 34171 ft | 422 kts | 4° |
| 2026-05-06 17:31 | 51.94188 | -3.38068 | 33409 ft | 417 kts | 1° |
| 2026-05-06 17:32 | 51.97074 | -3.37775 | 32264 ft | 416 kts | 360° |
| 2026-05-06 17:32 | 51.99987 | -3.37593 | 30960 ft | 421 kts | 359° |
| 2026-05-06 17:32 | 52.02886 | -3.37442 | 30136 ft | 413 kts | 359° |
| 2026-05-06 17:32 | 52.05747 | -3.37285 | 28981 ft | 409 kts | 359° |
| 2026-05-06 17:33 | 52.08598 | -3.37113 | 27645 ft | 410 kts | 360° |
| 2026-05-06 17:33 | 52.11445 | -3.36925 | 26471 ft | 408 kts | 0° |
| 2026-05-06 17:33 | 52.14257 | -3.36728 | 25480 ft | 401 kts | 0° |
| 2026-05-06 17:33 | 52.17014 | -3.36528 | 24561 ft | 394 kts | 0° |
| 2026-05-06 17:34 | 52.19728 | -3.36329 | 23639 ft | 388 kts | 0° |
| 2026-05-06 17:34 | 52.22404 | -3.36133 | 22573 ft | 382 kts | 1° |
| 2026-05-06 17:34 | 52.25038 | -3.35940 | 21705 ft | 374 kts | 0° |
| 2026-05-06 17:34 | 52.27552 | -3.35754 | 21117 ft | 360 kts | 0° |
| 2026-05-06 17:35 | 52.30009 | -3.35572 | 20559 ft | 348 kts | 0° |
| 2026-05-06 17:35 | 52.32400 | -3.35396 | 20042 ft | 342 kts | 0° |
| 2026-05-06 17:35 | 52.34783 | -3.35223 | 19539 ft | 345 kts | 0° |
| 2026-05-06 17:36 | 52.39724 | -3.34864 | 18486 ft | 362 kts | 0° |
| 2026-05-06 17:36 | 52.42238 | -3.34677 | 17881 ft | 360 kts | 0° |
| 2026-05-06 17:36 | 52.44729 | -3.34494 | 17283 ft | 357 kts | 0° |
| 2026-05-06 17:36 | 52.47197 | -3.34315 | 16688 ft | 354 kts | 0° |
| 2026-05-06 17:37 | 52.49644 | -3.34137 | 16125 ft | 350 kts | 0° |
| 2026-05-06 17:37 | 52.52068 | -3.33958 | 15576 ft | 347 kts | 0° |
| 2026-05-06 17:37 | 52.54461 | -3.33780 | 15052 ft | 343 kts | 0° |
| 2026-05-06 17:37 | 52.56840 | -3.33602 | 14529 ft | 340 kts | 0° |
| 2026-05-06 17:38 | 52.59193 | -3.33427 | 14010 ft | 337 kts | 0° |
| 2026-05-06 17:38 | 52.61525 | -3.33254 | 13462 ft | 334 kts | 0° |
| 2026-05-06 17:38 | 52.63832 | -3.33003 | 12917 ft | 332 kts | 4° |
| 2026-05-06 17:38 | 52.66103 | -3.32447 | 12409 ft | 328 kts | 7° |
| 2026-05-06 17:39 | 52.68346 | -3.31778 | 11889 ft | 326 kts | 8° |
| 2026-05-06 17:39 | 52.70560 | -3.31090 | 11394 ft | 323 kts | 8° |
| 2026-05-06 17:39 | 52.72757 | -3.30413 | 10886 ft | 320 kts | 8° |
| 2026-05-06 17:39 | 52.74939 | -3.29750 | 10453 ft | 316 kts | 8° |
| 2026-05-06 17:40 | 52.77052 | -3.29117 | 10335 ft | 302 kts | 8° |
| 2026-05-06 17:40 | 52.79058 | -3.28521 | 10191 ft | 291 kts | 8° |
| 2026-05-06 17:40 | 52.81008 | -3.27945 | 10068 ft | 280 kts | 8° |
| 2026-05-06 17:40 | 52.82901 | -3.27390 | 9828 ft | 274 kts | 8° |
| 2026-05-06 17:41 | 52.84771 | -3.26844 | 9488 ft | 272 kts | 8° |
| 2026-05-06 17:41 | 52.86622 | -3.26303 | 9159 ft | 269 kts | 8° |
| 2026-05-06 17:41 | 52.88452 | -3.25769 | 8834 ft | 266 kts | 8° |
| 2026-05-06 17:41 | 52.90271 | -3.25239 | 8515 ft | 264 kts | 8° |
| 2026-05-06 17:42 | 52.92077 | -3.24711 | 8200 ft | 263 kts | 8° |
| 2026-05-06 17:42 | 52.93872 | -3.24187 | 7893 ft | 261 kts | 8° |
| 2026-05-06 17:42 | 52.95663 | -3.23663 | 7572 ft | 261 kts | 8° |
| 2026-05-06 17:42 | 52.97449 | -3.23140 | 7259 ft | 260 kts | 8° |
| 2026-05-06 17:43 | 52.99233 | -3.22618 | 6938 ft | 260 kts | 8° |
| 2026-05-06 17:43 | 53.01011 | -3.22097 | 6622 ft | 260 kts | 9° |
| 2026-05-06 17:43 | 53.02790 | -3.21575 | 6294 ft | 259 kts | 9° |
| 2026-05-06 17:43 | 53.04540 | -3.21061 | 5958 ft | 259 kts | 9° |
| 2026-05-06 17:44 | 53.06310 | -3.20541 | 5648 ft | 258 kts | 9° |
| 2026-05-06 17:44 | 53.08053 | -3.20028 | 5492 ft | 250 kts | 10° |
| 2026-05-06 17:44 | 53.09742 | -3.19530 | 5361 ft | 243 kts | 10° |
| 2026-05-06 17:44 | 53.11389 | -3.19045 | 5234 ft | 239 kts | 10° |
| 2026-05-06 17:45 | 53.13015 | -3.18565 | 5127 ft | 237 kts | 10° |
| 2026-05-06 17:45 | 53.14643 | -3.18084 | 5025 ft | 238 kts | 10° |
| 2026-05-06 17:45 | 53.16277 | -3.17600 | 4906 ft | 239 kts | 11° |
| 2026-05-06 17:45 | 53.17913 | -3.17116 | 4794 ft | 239 kts | 11° |
| 2026-05-06 17:46 | 53.19548 | -3.16632 | 4672 ft | 238 kts | 11° |
| 2026-05-06 17:46 | 53.21180 | -3.16148 | 4556 ft | 238 kts | 11° |
| 2026-05-06 17:46 | 53.22813 | -3.15662 | 4432 ft | 238 kts | 10° |
| 2026-05-06 17:46 | 53.24445 | -3.15178 | 4312 ft | 238 kts | 11° |
| 2026-05-06 17:47 | 53.26063 | -3.14698 | 4123 ft | 232 kts | 11° |
| 2026-05-06 17:47 | 53.27618 | -3.14237 | 3921 ft | 221 kts | 11° |
| 2026-05-06 17:47 | 53.29076 | -3.13805 | 3670 ft | 205 kts | 11° |
| 2026-05-06 17:47 | 53.30436 | -3.13402 | 3419 ft | 195 kts | 11° |
| 2026-05-06 17:48 | 53.31728 | -3.12827 | 3159 ft | 192 kts | 32° |
| 2026-05-06 17:48 | 53.32460 | -3.11142 | 3000 ft | 180 kts | 82° |
| 2026-05-06 17:48 | 53.32431 | -3.09069 | 2786 ft | 182 kts | 94° |
| 2026-05-06 17:48 | 53.32409 | -3.06935 | 2532 ft | 184 kts | 89° |
| 2026-05-06 17:49 | 53.32475 | -3.04812 | 2279 ft | 180 kts | 86° |
| 2026-05-06 17:49 | 53.32564 | -3.02745 | 2034 ft | 177 kts | 86° |
| 2026-05-06 17:49 | 53.32655 | -3.00715 | 1794 ft | 173 kts | 86° |
| 2026-05-06 17:49 | 53.32741 | -2.98787 | 1567 ft | 162 kts | 86° |
| 2026-05-06 17:50 | 53.32821 | -2.96984 | 1378 ft | 147 kts | 86° |
| 2026-05-06 17:50 | 53.32893 | -2.95370 | 1150 ft | 133 kts | 86° |
| 2026-05-06 17:50 | 53.32959 | -2.93881 | 970 ft | 126 kts | 86° |
| 2026-05-06 17:50 | 53.33025 | -2.92415 | 803 ft | 127 kts | 85° |
| 2026-05-06 17:51 | 53.33095 | -2.90929 | 608 ft | 130 kts | 85° |
| 2026-05-06 17:51 | 53.33159 | -2.89446 | 458 ft | 128 kts | 86° |
| 2026-05-06 17:51 | 53.33224 | -2.87975 | 282 ft | 126 kts | 85° |
| 2026-05-06 17:51 | 53.33292 | -2.86520 | 106 ft | 124 kts | 85° |
| 2026-05-06 17:52 | 53.33351 | -2.85255 | 81 ft | 84 kts | 85° |
| 2026-05-06 17:52 | 53.33381 | -2.84614 | 72 ft | 40 kts | 84° |
| 2026-05-06 17:52 | 53.33404 | -2.84166 | 76 ft | 39 kts | 86° |
| 2026-05-06 17:52 | 53.33421 | -2.83767 | 68 ft | 23 kts | 84° |
| 2026-05-06 17:53 | 53.33463 | -2.83627 | 76 ft | 12 kts | 11° |
| 2026-05-06 17:53 | 53.33545 | -2.83632 | 69 ft | 10 kts | 355° |
| 2026-05-06 17:53 | 53.33587 | -2.83707 | 73 ft | 11 kts | 270° |
| 2026-05-06 17:53 | 53.33581 | -2.83860 | 66 ft | 15 kts | 266° |
| 2026-05-06 17:54 | 53.33571 | -2.84047 | 68 ft | 16 kts | 265° |
| 2026-05-06 17:54 | 53.33564 | -2.84238 | 77 ft | 18 kts | 266° |
| 2026-05-06 17:54 | 53.33553 | -2.84466 | 73 ft | 21 kts | 266° |
| 2026-05-06 17:54 | 53.33545 | -2.84627 | 82 ft | 11 kts | 264° |
| 2026-05-06 17:55 | 53.33540 | -2.84755 | 81 ft | 11 kts | 265° |
| 2026-05-06 17:55 | 53.33534 | -2.84882 | 85 ft | 11 kts | 265° |
| 2026-05-06 17:55 | 53.33528 | -2.85019 | 84 ft | 13 kts | 265° |
| 2026-05-06 17:55 | 53.33520 | -2.85180 | 87 ft | 15 kts | 265° |
| 2026-05-06 17:56 | 53.33512 | -2.85348 | 83 ft | 6 kts | 265° |
| 2026-05-06 17:56 | 53.33508 | -2.85434 | 87 ft | 9 kts | 266° |
| 2026-05-06 17:56 | 53.33538 | -2.85508 | 88 ft | 9 kts | 355° |
| 2026-05-06 17:56 | 53.33609 | -2.85533 | 84 ft | 9 kts | 318° |
| 2026-05-06 17:57 | 53.33607 | -2.85653 | 86 ft | 12 kts | 264° |
| 2026-05-06 17:57 | 53.33611 | -2.85719 | 84 ft | 4 kts | 316° |
| 2026-05-06 17:57 | 53.33638 | -2.85720 | 84 ft | 3 kts | 356° |
| 2026-05-06 17:57 | 53.33651 | -2.85722 | 84 ft | 0 kts | 356° |
| 2026-05-06 17:58 | 53.33652 | -2.85722 | 84 ft | 0 kts | 355° |